»·PEaware :: N542T KPMD-KBUR

N542T :: KPMD-KBUR

FLIGHT INFORMATION

Flight Status: Arrived
Operator: Privately registered:
United States
More flights under this callsign
Pilot: Erik H. (34311)
Aircraft: BEECH AIRCRAFT BONANZA
(BE36)
More flights by this aircraft type
Origin: KPMD Palmdale AF Plant 42
United States
Destination: KBUR Bob Hope-Burbank
United States
More flights between these airports :: More routes between these airports
Route: PMD PMD240 LYNXX VNY329 VNY
File this flight plan on PilotEdge
Remarks:
Altitude:
(Current/Filed)
8,000ft
Speed:
(Current/Filed)
160kts
Departed: 08-Mar-23 06:04 PM
Arrived: 08-Mar-23 06:31 PM
Distance/Time
Traveled:
29nm/0:27
Distance/Time
To Go:
Arrived

Flight Plot

Page will automatically refresh every two minutes.

Flight plan parsing failed; only flown route is shown


Map Options




Map Legend


Flown Route
Filed Route
Departure Airport
Arrival Airport
Navaid (VOR, NDB)
Fix

Horizontal Profiles

Position Reports

Time Latitude Longitude Heading Altitude Ground
Speed
08-Mar-23 17:37 34.638855 -118.067878 270 2485ft 0kts
08-Mar-23 17:38 34.638855 -118.067878 269 2485ft 0kts
08-Mar-23 17:39 34.638855 -118.067878 269 2485ft 0kts
08-Mar-23 17:40 34.638855 -118.067878 270 2485ft 0kts
08-Mar-23 17:41 34.638855 -118.067878 269 2485ft 0kts
08-Mar-23 17:42 34.638855 -118.067878 269 2485ft 0kts
08-Mar-23 17:43 34.638855 -118.067878 0 2485ft 0kts
08-Mar-23 17:44 34.638855 -118.067878 270 2485ft 0kts
08-Mar-23 17:45 34.638855 -118.067878 269 2485ft 0kts
08-Mar-23 17:46 34.638855 -118.067878 269 2485ft 0kts
08-Mar-23 17:49 34.638855 -118.067878 269 2485ft 0kts
08-Mar-23 17:50 34.638855 -118.067878 270 2485ft 0kts
08-Mar-23 17:51 34.638855 -118.067878 269 2485ft 0kts
08-Mar-23 17:52 34.638855 -118.067878 269 2485ft 0kts
08-Mar-23 17:53 34.638855 -118.067878 270 2485ft 0kts
08-Mar-23 17:54 34.638855 -118.067878 270 2485ft 0kts
08-Mar-23 17:55 34.638855 -118.067944 271 2485ft 4kts
08-Mar-23 17:56 34.638503 -118.071824 189 2486ft 15kts
08-Mar-23 17:57 34.635761 -118.072166 251 2492ft 14kts
08-Mar-23 17:58 34.634409 -118.073546 184 2494ft 0kts
08-Mar-23 17:59 34.633671 -118.073475 170 2496ft 0kts
08-Mar-23 18:00 34.633671 -118.073475 170 2496ft 0kts
08-Mar-23 18:01 34.633671 -118.073475 170 2496ft 0kts
08-Mar-23 18:02 34.632745 -118.074072 269 2497ft 0kts
08-Mar-23 18:03 34.629681 -118.090944 242 2961ft 82kts
08-Mar-23 18:04 34.621364 -118.115798 256 4281ft 93kts
08-Mar-23 18:05 34.613922 -118.149676 256 5712ft 114kts
08-Mar-23 18:06 34.605202 -118.188382 258 7113ft 123kts
08-Mar-23 18:07 34.595646 -118.230859 259 7985ft 148kts
08-Mar-23 18:08 34.584433 -118.280678 258 7980ft 158kts
08-Mar-23 18:09 34.572214 -118.333873 258 7977ft 167kts
08-Mar-23 18:10 34.559667 -118.388509 258 7977ft 168kts
08-Mar-23 18:11 34.547088 -118.443267 258 7979ft 169kts
08-Mar-23 18:12 34.534428 -118.498214 258 7984ft 169kts
08-Mar-23 18:13 34.521727 -118.553244 258 7981ft 170kts
08-Mar-23 18:14 34.486532 -118.585603 169 7990ft 200kts
08-Mar-23 18:15 34.433468 -118.575363 191 7512ft 187kts
08-Mar-23 18:16 34.383379 -118.590244 202 6207ft 184kts
08-Mar-23 18:17 34.335246 -118.610462 202 5034ft 176kts
08-Mar-23 18:18 34.294039 -118.627843 203 4973ft 141kts
08-Mar-23 18:19 34.259273 -118.642446 203 4916ft 130kts
08-Mar-23 18:20 34.227358 -118.655678 202 3928ft 115kts
08-Mar-23 18:21 34.206782 -118.641274 124 3984ft 100kts
08-Mar-23 18:22 34.200743 -118.608349 89 3970ft 101kts
08-Mar-23 18:23 34.200474 -118.574818 83 3974ft 98kts
08-Mar-23 18:24 34.200169 -118.541833 87 3631ft 99kts
08-Mar-23 18:25 34.199785 -118.509414 93 3131ft 94kts
08-Mar-23 18:26 34.199329 -118.477814 90 2621ft 95kts
08-Mar-23 18:27 34.198912 -118.444555 88 2031ft 100kts
08-Mar-23 18:28 34.198482 -118.410446 91 1427ft 101kts
08-Mar-23 18:29 34.198145 -118.376855 92 886ft 98kts
08-Mar-23 18:30 34.197168 -118.360280 179 713ft 10kts
08-Mar-23 18:31 34.196855 -118.362061 269 715ft 9kts
08-Mar-23 18:32 34.196015 -118.365628 256 718ft 0kts
08-Mar-23 18:33 34.196015 -118.365628 256 718ft 0kts
08-Mar-23 18:34 34.196015 -118.365628 256 718ft 0kts

Navigation Log

Ident Type
Flight plan parsing failed, navigation log unavailable